createdAt,value
2022-11-05T00:00:18.821Z,7.32
2022-11-05T00:02:44.962Z,6.97
2022-11-05T00:05:11.086Z,6.30
2022-11-05T00:07:37.230Z,6.32
2022-11-05T00:10:03.342Z,6.72
2022-11-05T00:12:29.497Z,6.20
2022-11-05T00:14:55.615Z,5.32
2022-11-05T00:17:21.752Z,5.97
2022-11-05T00:19:47.877Z,6.93
2022-11-05T00:22:14.022Z,5.82
2022-11-05T00:24:40.145Z,5.35
2022-11-05T00:27:06.266Z,6.13
2022-11-05T00:29:32.399Z,5.07
2022-11-05T00:31:58.528Z,6.22
2022-11-05T00:34:24.666Z,5.88
2022-11-05T00:36:50.790Z,6.20
2022-11-05T00:39:16.958Z,6.00
2022-11-05T00:41:43.075Z,6.80
2022-11-05T00:44:09.202Z,5.95
2022-11-05T00:46:35.357Z,7.20
2022-11-05T00:49:01.496Z,6.10
2022-11-05T00:51:27.623Z,6.05
2022-11-05T00:53:53.761Z,6.60
2022-11-05T00:56:19.905Z,6.88
2022-11-05T00:58:46.007Z,5.78
2022-11-05T01:01:12.194Z,6.40
2022-11-05T01:03:38.362Z,6.47
2022-11-05T01:06:04.498Z,6.30
2022-11-05T01:08:30.614Z,6.43
2022-11-05T01:10:56.736Z,6.25
2022-11-05T01:13:22.861Z,5.78
2022-11-05T01:15:48.963Z,6.28
2022-11-05T01:18:15.089Z,5.85
2022-11-05T01:20:41.235Z,6.28
2022-11-05T01:23:12.147Z,6.35
2022-11-05T01:25:39.514Z,5.70
2022-11-05T01:28:05.630Z,6.75
2022-11-05T01:30:31.752Z,6.50
2022-11-05T01:32:57.875Z,5.55
2022-11-05T01:35:24.010Z,5.65
2022-11-05T01:37:50.132Z,4.97
2022-11-05T01:40:16.263Z,5.32
2022-11-05T01:42:42.389Z,4.75
2022-11-05T01:45:08.508Z,4.68
2022-11-05T01:47:34.647Z,5.22
2022-11-05T01:50:00.784Z,4.60
2022-11-05T01:52:26.930Z,4.75
2022-11-05T01:54:53.037Z,4.70
2022-11-05T01:57:19.168Z,4.60
2022-11-05T01:59:45.268Z,4.80
2022-11-05T02:02:11.533Z,4.80
2022-11-05T02:04:37.801Z,4.72
2022-11-05T02:07:03.913Z,4.82
2022-11-05T02:09:30.032Z,4.75
2022-11-05T02:11:56.167Z,4.97
2022-11-05T02:14:22.308Z,4.75
2022-11-05T02:16:48.463Z,4.72
2022-11-05T02:19:14.572Z,5.05
2022-11-05T02:21:40.680Z,4.72
2022-11-05T02:24:06.817Z,4.75
2022-11-05T02:26:32.934Z,4.80
2022-11-05T02:28:59.072Z,5.00
2022-11-05T02:31:25.184Z,5.30
2022-11-05T02:33:51.311Z,5.47
2022-11-05T02:36:17.442Z,4.90
2022-11-05T02:38:43.571Z,5.00
2022-11-05T02:41:09.690Z,4.85
2022-11-05T02:43:35.800Z,4.55
2022-11-05T02:46:01.954Z,4.70
2022-11-05T02:48:28.435Z,5.32
2022-11-05T02:50:54.541Z,4.82
2022-11-05T02:53:20.683Z,4.78
2022-11-05T02:55:46.835Z,5.70
2022-11-05T02:58:12.936Z,5.40
2022-11-05T03:00:39.097Z,5.28
2022-11-05T03:03:05.334Z,5.15
2022-11-05T03:05:31.482Z,5.57
2022-11-05T03:07:57.599Z,6.35
2022-11-05T03:10:23.704Z,5.30
2022-11-05T03:12:51.190Z,5.13
2022-11-05T03:15:19.484Z,6.10
2022-11-05T03:17:45.585Z,5.78
2022-11-05T03:20:11.713Z,6.03
2022-11-05T03:22:37.874Z,5.93
2022-11-05T03:25:03.993Z,5.32
2022-11-05T03:27:30.104Z,6.05
2022-11-05T03:29:56.266Z,6.50
2022-11-05T03:32:22.387Z,6.93
2022-11-05T03:34:48.511Z,5.53
2022-11-05T03:37:14.675Z,7.00
2022-11-05T03:39:40.779Z,6.30
2022-11-05T03:42:06.931Z,6.80
2022-11-05T03:44:33.095Z,5.68
2022-11-05T03:46:59.204Z,6.82
2022-11-05T03:49:25.306Z,6.78
2022-11-05T03:51:51.441Z,6.45
2022-11-05T03:54:17.596Z,7.05
2022-11-05T03:56:43.738Z,6.95
2022-11-05T03:59:09.868Z,7.90
2022-11-05T04:01:36.098Z,7.30
2022-11-05T04:04:02.351Z,8.52
2022-11-05T04:06:28.499Z,8.00
2022-11-05T04:08:54.603Z,7.55
2022-11-05T04:11:20.721Z,7.03
2022-11-05T04:13:46.851Z,7.60
2022-11-05T04:16:12.964Z,7.28
2022-11-05T04:18:39.089Z,6.93
2022-11-05T04:21:05.220Z,7.63
2022-11-05T04:23:31.357Z,8.20
2022-11-05T04:25:57.514Z,6.97
2022-11-05T04:28:23.624Z,7.60
2022-11-05T04:30:49.742Z,7.25
2022-11-05T04:33:15.900Z,6.45
2022-11-05T04:35:42.041Z,6.53
2022-11-05T04:38:08.146Z,6.40
2022-11-05T04:40:34.288Z,6.10
2022-11-05T04:43:00.410Z,7.20
2022-11-05T04:45:26.568Z,6.88
2022-11-05T04:47:52.683Z,5.97
2022-11-05T04:50:18.818Z,5.47
2022-11-05T04:52:44.959Z,6.07
2022-11-05T04:55:11.081Z,5.63
2022-11-05T04:57:37.194Z,6.30
2022-11-05T05:00:03.332Z,5.60
2022-11-05T05:02:29.464Z,5.05
2022-11-05T05:04:55.615Z,5.40
2022-11-05T05:07:21.728Z,5.07
2022-11-05T05:09:47.862Z,4.57
2022-11-05T05:12:13.976Z,4.80
2022-11-05T05:14:40.120Z,4.10
2022-11-05T05:17:06.231Z,4.97
2022-11-05T05:19:32.357Z,4.38
2022-11-05T05:21:58.483Z,4.47
2022-11-05T05:24:24.589Z,4.32
2022-11-05T05:26:50.734Z,3.72
2022-11-05T05:29:16.893Z,3.63
2022-11-05T05:31:43.007Z,3.70
2022-11-05T05:34:09.230Z,4.10
2022-11-05T05:36:35.341Z,3.13
2022-11-05T05:39:01.473Z,3.55
2022-11-05T05:41:27.636Z,3.70
2022-11-05T05:43:53.745Z,3.08
2022-11-05T05:46:19.901Z,3.28
2022-11-05T05:48:46.047Z,2.97
2022-11-05T05:51:12.162Z,3.35
2022-11-05T05:53:38.402Z,3.60
2022-11-05T05:56:04.513Z,3.58
2022-11-05T05:58:30.657Z,2.92
2022-11-05T06:00:56.828Z,4.07
2022-11-05T06:03:22.951Z,3.67
2022-11-05T06:05:49.086Z,3.95
2022-11-05T06:08:15.207Z,3.28
2022-11-05T06:10:41.388Z,3.35
2022-11-05T06:13:07.595Z,2.88
2022-11-05T06:15:36.063Z,3.38
2022-11-05T06:18:02.390Z,3.75
2022-11-05T06:20:28.521Z,3.20
2022-11-05T06:22:54.690Z,2.97
2022-11-05T06:25:20.783Z,3.20
2022-11-05T06:27:46.889Z,3.03
2022-11-05T06:30:13.020Z,2.90
2022-11-05T06:32:39.134Z,3.17
2022-11-05T06:35:05.260Z,3.42
2022-11-05T06:37:31.463Z,3.08
2022-11-05T06:39:57.592Z,2.72
2022-11-05T06:42:23.706Z,2.85
2022-11-05T06:44:49.846Z,2.88
2022-11-05T06:47:15.982Z,2.75
2022-11-05T06:49:42.136Z,2.92
2022-11-05T06:52:08.262Z,3.08
2022-11-05T06:54:34.377Z,2.92
2022-11-05T06:57:00.540Z,2.97
2022-11-05T06:59:26.658Z,3.33
2022-11-05T07:01:52.855Z,3.72
2022-11-05T07:04:18.990Z,3.80
2022-11-05T07:06:45.137Z,3.95
2022-11-05T07:09:11.242Z,3.60
2022-11-05T07:11:37.392Z,3.22
2022-11-05T07:14:03.531Z,3.88
2022-11-05T07:16:29.651Z,4.38
2022-11-05T07:18:55.803Z,4.47
2022-11-05T07:21:21.944Z,6.95
2022-11-05T07:23:48.071Z,4.63
2022-11-05T07:26:14.175Z,4.82
2022-11-05T07:28:40.306Z,5.72
2022-11-05T07:31:06.429Z,5.85
2022-11-05T07:33:36.476Z,5.72
2022-11-05T07:36:02.977Z,5.57
2022-11-05T07:38:29.112Z,5.85
2022-11-05T07:40:55.243Z,6.10
2022-11-05T07:43:21.352Z,4.63
2022-11-05T07:45:47.486Z,5.05
2022-11-05T07:48:13.606Z,5.00
2022-11-05T07:50:39.747Z,4.90
2022-11-05T07:53:05.889Z,4.70
2022-11-05T07:55:32.014Z,3.50
2022-11-05T07:57:58.144Z,4.05
2022-11-05T08:00:24.289Z,4.10
2022-11-05T08:02:50.692Z,4.18
2022-11-05T08:05:17.021Z,3.55
2022-11-05T08:07:43.153Z,4.20
2022-11-05T08:10:09.302Z,3.80
2022-11-05T08:12:35.418Z,4.05
2022-11-05T08:15:01.569Z,4.10
2022-11-05T08:17:27.707Z,4.25
2022-11-05T08:19:53.817Z,3.78
2022-11-05T08:22:19.973Z,4.20
2022-11-05T08:24:46.122Z,3.88
2022-11-05T08:27:12.250Z,3.35
2022-11-05T08:29:38.390Z,4.22
2022-11-05T08:32:04.517Z,4.05
2022-11-05T08:34:30.651Z,4.05
2022-11-05T08:36:57.085Z,3.75
2022-11-05T08:39:23.243Z,4.18
2022-11-05T08:41:49.403Z,4.10
2022-11-05T08:44:15.528Z,4.47
2022-11-05T08:46:41.961Z,4.20
2022-11-05T08:49:08.142Z,3.97
2022-11-05T08:51:34.258Z,3.80
2022-11-05T08:54:00.423Z,3.75
2022-11-05T08:56:26.533Z,4.07
2022-11-05T08:58:52.652Z,4.20
2022-11-05T09:01:18.896Z,4.28
2022-11-05T09:03:45.564Z,4.07
2022-11-05T09:06:11.701Z,4.43
2022-11-05T09:08:38.229Z,4.80
2022-11-05T09:11:04.384Z,4.95
2022-11-05T09:13:30.497Z,4.22
2022-11-05T09:15:56.620Z,4.68
2022-11-05T09:18:22.746Z,4.95
2022-11-05T09:20:48.921Z,4.97
2022-11-05T09:23:15.179Z,4.88
2022-11-05T09:25:41.391Z,4.13
2022-11-05T09:28:07.561Z,5.18
2022-11-05T09:30:33.708Z,5.13
2022-11-05T09:32:59.824Z,5.00
2022-11-05T09:35:25.966Z,5.68
2022-11-05T09:37:54.559Z,4.22
2022-11-05T09:40:24.356Z,5.30
2022-11-05T09:42:50.670Z,5.07
2022-11-05T09:45:16.816Z,6.03
2022-11-05T09:47:42.938Z,5.55
2022-11-05T09:50:09.067Z,5.20
2022-11-05T09:52:35.214Z,5.57
2022-11-05T09:55:01.340Z,5.93
2022-11-05T09:57:27.483Z,6.43
2022-11-05T09:59:53.657Z,6.45
2022-11-05T10:02:19.789Z,6.10
2022-11-05T10:04:45.981Z,7.03
2022-11-05T10:07:12.140Z,5.85
2022-11-05T10:09:38.317Z,5.80
2022-11-05T10:12:04.438Z,6.13
2022-11-05T10:14:30.552Z,4.70
2022-11-05T10:16:56.690Z,4.93
2022-11-05T10:19:22.808Z,5.88
2022-11-05T10:22:05.992Z,5.70
2022-11-05T10:24:33.171Z,5.35
2022-11-05T10:26:59.303Z,6.57
2022-11-05T10:29:25.430Z,6.30
2022-11-05T10:31:51.567Z,5.85
2022-11-05T10:34:17.709Z,5.85
2022-11-05T10:36:43.927Z,6.25
2022-11-05T10:41:53.790Z,5.72
2022-11-05T10:44:19.923Z,6.13
2022-11-05T10:46:46.042Z,5.13
2022-11-05T10:49:12.164Z,6.45
2022-11-05T10:51:38.281Z,5.40
2022-11-05T10:54:04.431Z,5.10
2022-11-05T10:56:30.567Z,5.72
2022-11-05T10:58:56.670Z,6.50
2022-11-05T11:01:22.907Z,5.20
2022-11-05T11:03:49.078Z,5.85
2022-11-05T11:06:15.220Z,5.60
2022-11-05T11:08:41.891Z,4.80
2022-11-05T11:11:08.052Z,5.20
2022-11-05T11:13:34.162Z,5.63
2022-11-05T11:16:00.280Z,4.65
2022-11-05T11:18:26.438Z,5.15
2022-11-05T11:20:52.567Z,5.45
2022-11-05T11:23:18.686Z,4.32
2022-11-05T11:25:44.828Z,5.78
2022-11-05T11:28:10.989Z,4.72
2022-11-05T11:30:37.115Z,5.60
2022-11-05T11:33:03.240Z,5.53
2022-11-05T11:35:29.384Z,4.10
2022-11-05T11:37:55.510Z,3.47
2022-11-05T11:40:21.635Z,3.45
2022-11-05T11:42:47.759Z,4.03
2022-11-05T11:45:13.917Z,3.70
2022-11-05T11:47:40.034Z,3.60
2022-11-05T11:50:06.167Z,2.75
2022-11-05T11:52:32.311Z,3.08
2022-11-05T11:54:58.419Z,2.75
2022-11-05T11:57:24.559Z,2.92
2022-11-05T12:02:36.837Z,2.88
2022-11-05T12:05:03.035Z,2.70
2022-11-05T12:07:29.189Z,2.90
2022-11-05T12:09:55.336Z,3.35
2022-11-05T12:12:21.491Z,3.33
2022-11-05T12:14:47.642Z,3.00
2022-11-05T12:17:13.746Z,2.90
2022-11-05T12:19:39.867Z,2.75
2022-11-05T12:22:05.996Z,2.70
2022-11-05T12:24:32.100Z,2.30
2022-11-05T12:26:58.215Z,2.17
2022-11-05T12:29:24.335Z,2.30
2022-11-05T12:31:50.454Z,2.17
2022-11-05T12:34:16.594Z,2.15
2022-11-05T12:36:42.707Z,1.73
2022-11-05T12:39:08.895Z,1.95
2022-11-05T12:41:35.090Z,2.60
2022-11-05T12:44:01.206Z,2.20
2022-11-05T12:46:27.343Z,2.10
2022-11-05T12:48:53.601Z,1.90
2022-11-05T12:51:19.748Z,1.95
2022-11-05T12:53:45.879Z,1.90
2022-11-05T12:56:11.997Z,1.95
2022-11-05T12:58:38.111Z,2.28
2022-11-05T13:01:04.290Z,2.85
2022-11-05T13:03:30.503Z,2.10
2022-11-05T13:06:00.196Z,1.80
2022-11-05T13:08:29.150Z,2.05
2022-11-05T13:10:55.265Z,1.75
2022-11-05T13:13:21.404Z,1.95
2022-11-05T13:15:47.538Z,1.70
2022-11-05T13:18:13.663Z,1.60
2022-11-05T13:20:39.827Z,2.15
2022-11-05T13:23:05.960Z,2.20
2022-11-05T13:25:32.130Z,2.15
2022-11-05T13:27:58.266Z,1.77
2022-11-05T13:30:24.441Z,2.05
2022-11-05T13:32:50.557Z,1.95
2022-11-05T13:35:16.662Z,1.80
2022-11-05T13:37:42.814Z,2.35
2022-11-05T13:40:10.584Z,2.25
2022-11-05T13:42:44.128Z,2.47
2022-11-05T13:45:10.315Z,2.30
2022-11-05T13:47:38.033Z,2.10
2022-11-05T13:50:04.301Z,2.35
2022-11-05T13:52:30.461Z,2.80
2022-11-05T13:54:56.585Z,1.95
2022-11-05T13:57:22.741Z,2.20
2022-11-05T13:59:48.848Z,2.40
2022-11-05T14:02:15.116Z,2.65
2022-11-05T14:04:41.360Z,2.78
2022-11-05T14:07:07.495Z,2.50
2022-11-05T14:09:33.646Z,3.13
2022-11-05T14:11:59.758Z,2.80
2022-11-05T14:14:25.924Z,2.67
2022-11-05T14:16:52.037Z,2.25
2022-11-05T14:19:18.198Z,2.55
2022-11-05T14:21:44.311Z,2.13
2022-11-05T14:24:10.468Z,2.70
2022-11-05T14:26:36.583Z,2.35
2022-11-05T14:29:02.750Z,3.50
2022-11-05T14:31:47.269Z,2.80
2022-11-05T14:36:58.728Z,3.17
2022-11-05T14:39:24.841Z,3.47
2022-11-05T14:41:50.981Z,3.38
2022-11-05T14:44:17.120Z,3.80
2022-11-05T14:46:43.250Z,3.70
2022-11-05T14:49:09.845Z,3.45
2022-11-05T14:51:36.125Z,3.22
2022-11-05T14:54:02.243Z,3.10
2022-11-05T14:56:28.371Z,3.55
2022-11-05T14:58:54.514Z,3.90
2022-11-05T15:01:20.695Z,3.83
2022-11-05T15:03:47.532Z,3.42
2022-11-05T15:06:13.750Z,3.65
2022-11-05T15:08:39.900Z,3.83
2022-11-05T15:11:06.063Z,3.80
2022-11-05T15:13:32.183Z,4.30
2022-11-05T15:15:58.307Z,3.85
2022-11-05T15:18:24.479Z,4.13
2022-11-05T15:20:50.626Z,4.05
2022-11-05T15:23:16.743Z,4.50
2022-11-05T15:25:42.878Z,4.28
2022-11-05T15:28:09.011Z,3.92
2022-11-05T15:30:35.157Z,3.75
2022-11-05T15:33:01.314Z,4.22
2022-11-05T15:35:27.458Z,4.35
2022-11-05T15:37:58.806Z,3.72
2022-11-05T15:40:27.747Z,3.92
2022-11-05T15:42:53.863Z,4.10
2022-11-05T15:45:19.988Z,4.00
2022-11-05T15:47:46.143Z,3.85
2022-11-05T15:50:14.705Z,4.13
2022-11-05T15:52:41.207Z,4.45
2022-11-05T15:55:07.349Z,4.13
2022-11-05T15:57:33.471Z,4.78
2022-11-05T15:59:59.625Z,4.00
2022-11-05T16:02:25.807Z,3.80
2022-11-05T16:04:52.034Z,4.97
2022-11-05T16:07:18.193Z,4.53
2022-11-05T16:09:44.336Z,4.50
2022-11-05T16:12:10.449Z,5.03
2022-11-05T16:14:36.593Z,4.20
2022-11-05T16:17:02.739Z,4.80
2022-11-05T16:19:28.884Z,4.63
2022-11-05T16:21:55.037Z,5.45
2022-11-05T16:24:25.229Z,5.57
2022-11-05T16:27:03.032Z,4.75
2022-11-05T16:29:29.752Z,5.20
2022-11-05T16:31:55.902Z,4.10
2022-11-05T16:34:22.059Z,5.05
2022-11-05T16:36:48.201Z,4.85
2022-11-05T16:39:14.344Z,5.57
2022-11-05T16:41:40.507Z,5.40
2022-11-05T16:44:06.622Z,4.43
2022-11-05T16:46:32.745Z,4.40
2022-11-05T16:48:58.906Z,4.65
2022-11-05T16:51:27.492Z,5.00
2022-11-05T16:53:53.825Z,4.72
2022-11-05T16:56:19.953Z,4.57
2022-11-05T16:58:46.107Z,4.45
2022-11-05T17:01:12.276Z,5.80
2022-11-05T17:03:38.431Z,5.05
2022-11-05T17:06:04.588Z,4.68
2022-11-05T17:08:30.821Z,3.97
2022-11-05T17:10:56.946Z,5.07
2022-11-05T17:13:23.081Z,4.20
2022-11-05T17:15:49.220Z,4.90
2022-11-05T17:18:18.858Z,5.07
2022-11-05T17:20:46.763Z,3.78
2022-11-05T17:23:13.200Z,4.22
2022-11-05T17:25:39.733Z,4.35
2022-11-05T17:28:05.952Z,4.47
2022-11-05T17:30:32.173Z,4.10
2022-11-05T17:32:58.351Z,4.38
2022-11-05T17:35:24.569Z,4.50
2022-11-05T17:37:50.704Z,5.00
2022-11-05T17:40:16.822Z,4.80
2022-11-05T17:42:42.933Z,5.80
2022-11-05T17:45:09.060Z,4.60
2022-11-05T17:47:35.291Z,4.45
2022-11-05T17:50:01.478Z,4.95
2022-11-05T17:52:27.629Z,4.82
2022-11-05T17:54:53.796Z,4.32
2022-11-05T17:57:19.935Z,4.97
2022-11-05T17:59:46.039Z,8.55
2022-11-05T18:02:12.320Z,9.63
2022-11-05T18:04:38.519Z,7.85
2022-11-05T18:07:04.646Z,5.05
2022-11-05T18:09:30.780Z,5.82
2022-11-05T18:11:56.937Z,6.35
2022-11-05T18:14:24.277Z,6.63
2022-11-05T18:16:50.529Z,10.82
2022-11-05T18:19:16.670Z,11.05
2022-11-05T18:21:42.795Z,11.00
2022-11-05T18:24:08.937Z,7.57
2022-11-05T18:26:35.085Z,5.70
2022-11-05T18:29:01.270Z,5.78
2022-11-05T18:31:27.393Z,6.35
2022-11-05T18:33:53.512Z,7.38
2022-11-05T18:36:19.629Z,7.35
2022-11-05T18:38:45.774Z,6.38
2022-11-05T18:41:11.914Z,6.60
2022-11-05T18:43:38.025Z,7.07
2022-11-05T18:46:06.896Z,7.88
2022-11-05T18:48:33.024Z,7.75
2022-11-05T18:51:01.863Z,9.02
2022-11-05T18:53:28.343Z,9.18
2022-11-05T18:55:54.456Z,12.07
2022-11-05T18:58:20.628Z,9.93
2022-11-05T19:00:46.769Z,8.07
2022-11-05T19:03:12.912Z,10.32
2022-11-05T19:05:39.058Z,9.25
2022-11-05T19:08:05.185Z,7.43
2022-11-05T19:10:31.310Z,7.93
2022-11-05T19:12:57.465Z,8.65
2022-11-05T19:15:23.609Z,8.85
2022-11-05T19:17:49.756Z,9.25
2022-11-05T19:20:15.887Z,9.30
2022-11-05T19:22:42.041Z,10.35
2022-11-05T19:25:08.165Z,13.40
2022-11-05T19:27:34.548Z,13.88
2022-11-05T19:30:00.694Z,14.30
2022-11-05T19:32:26.819Z,12.38
2022-11-05T19:34:52.981Z,13.35
2022-11-05T19:37:19.141Z,12.75
2022-11-05T19:39:45.280Z,13.15
2022-11-05T19:42:11.408Z,11.10
2022-11-05T19:44:37.567Z,12.32
2022-11-05T19:47:03.696Z,12.35
2022-11-05T19:49:29.838Z,11.10
2022-11-05T19:51:55.946Z,10.73
2022-11-05T19:54:22.132Z,8.50
2022-11-05T19:56:48.265Z,9.23
2022-11-05T19:59:14.410Z,10.52
2022-11-05T20:01:40.584Z,9.73
2022-11-05T20:04:06.837Z,12.98
2022-11-05T20:06:33.046Z,9.73
2022-11-05T20:09:20.581Z,7.30
2022-11-05T20:11:45.305Z,6.80
2022-11-05T20:14:11.434Z,6.45
2022-11-05T20:16:37.590Z,8.05
2022-11-05T20:19:03.708Z,7.53
2022-11-05T20:21:29.832Z,8.77
2022-11-05T20:23:56.003Z,8.88
2022-11-05T20:26:22.114Z,8.57
2022-11-05T20:28:48.266Z,9.52
2022-11-05T20:31:14.385Z,9.77
2022-11-05T20:33:40.542Z,10.38
2022-11-05T20:36:06.660Z,9.25
2022-11-05T20:38:32.782Z,9.10
2022-11-05T20:40:58.942Z,9.52
2022-11-05T20:43:30.142Z,10.02
2022-11-05T20:45:56.729Z,8.75
2022-11-05T20:48:22.839Z,10.52
2022-11-05T20:50:48.980Z,9.65
2022-11-05T20:53:15.164Z,9.82
2022-11-05T20:55:41.289Z,8.52
2022-11-05T20:58:07.438Z,10.82
2022-11-05T21:00:33.574Z,9.88
2022-11-05T21:02:59.749Z,8.35
2022-11-05T21:05:28.891Z,9.27
2022-11-05T21:10:23.581Z,9.75
2022-11-05T21:12:49.705Z,8.65
2022-11-05T21:15:15.832Z,8.75
2022-11-05T21:17:41.973Z,9.52
2022-11-05T21:20:08.110Z,9.20
2022-11-05T21:22:34.224Z,9.73
2022-11-05T21:25:00.440Z,9.18
2022-11-05T21:27:26.557Z,8.57
2022-11-05T21:29:52.677Z,8.20
2022-11-05T21:32:18.831Z,9.52
2022-11-05T21:34:44.968Z,9.57
2022-11-05T21:37:11.079Z,9.07
2022-11-05T21:39:37.202Z,8.25
2022-11-05T21:42:03.346Z,9.18
2022-11-05T21:44:29.464Z,9.70
2022-11-05T21:46:55.619Z,9.98
2022-11-05T21:49:21.753Z,9.48
2022-11-05T21:51:47.882Z,8.88
2022-11-05T21:54:14.003Z,7.60
2022-11-05T21:56:40.140Z,9.15
2022-11-05T21:59:06.261Z,8.75
2022-11-05T22:01:32.499Z,10.05
2022-11-05T22:04:02.869Z,9.52
2022-11-05T22:06:29.476Z,9.65
2022-11-05T22:08:55.609Z,10.15
2022-11-05T22:11:21.721Z,9.40
2022-11-05T22:13:47.893Z,8.80
2022-11-05T22:16:14.022Z,8.40
2022-11-05T22:18:40.172Z,8.38
2022-11-05T22:21:06.297Z,8.18
2022-11-05T22:23:32.424Z,8.07
2022-11-05T22:25:58.570Z,8.57
2022-11-05T22:28:24.707Z,7.45
2022-11-05T22:30:50.833Z,7.25
2022-11-05T22:33:16.997Z,7.97
2022-11-05T22:35:43.262Z,7.75
2022-11-05T22:38:09.692Z,8.45
2022-11-05T22:40:35.948Z,9.88
2022-11-05T22:43:02.058Z,8.55
2022-11-05T22:45:28.395Z,7.78
2022-11-05T22:47:54.598Z,7.65
2022-11-05T22:50:20.739Z,7.65
2022-11-05T22:52:46.881Z,7.30
2022-11-05T22:55:12.991Z,7.43
2022-11-05T22:57:39.153Z,8.30
2022-11-05T23:00:05.288Z,6.72
2022-11-05T23:02:31.486Z,7.43
2022-11-05T23:04:57.720Z,8.38
2022-11-05T23:07:27.666Z,8.23
2022-11-05T23:09:54.231Z,8.25
2022-11-05T23:12:20.372Z,8.05
2022-11-05T23:14:46.490Z,9.10
2022-11-05T23:17:12.626Z,7.32
2022-11-05T23:19:38.788Z,8.05
2022-11-05T23:22:04.897Z,8.85
2022-11-05T23:24:31.030Z,8.55
2022-11-05T23:26:57.189Z,9.55
2022-11-05T23:29:23.291Z,10.25
2022-11-05T23:31:49.407Z,10.38
2022-11-05T23:34:15.545Z,9.75
2022-11-05T23:36:41.682Z,8.85
2022-11-05T23:39:07.814Z,9.75
2022-11-05T23:41:33.988Z,8.35
2022-11-05T23:44:00.114Z,9.93
2022-11-05T23:46:26.245Z,9.05
2022-11-05T23:48:52.406Z,8.05
2022-11-05T23:51:18.517Z,8.00
2022-11-05T23:53:44.646Z,6.93
2022-11-05T23:56:10.793Z,7.70
2022-11-05T23:58:36.913Z,8.38
